Time;durP1;ratioP1;P1;durP2;ratioP2;P2;SDS_P1;SDS_P2;PMS_P1;PMS_P2;Temp;Humidity;BMP_temperature;BMP_pressure;BME280_temperature;BME280_humidity;BME280_pressure;Samples;Min_cycle;Max_cycle;Signal;HPM_P1;HPM_P2
2021/03/04 00:00:16;;;;;;;56.80;29.20;;;;;;;;;;5050441;28;20181;-74
2021/03/04 00:02:42;;;;;;;56.83;30.58;;;;;;;;;;5046642;28;20234;-74
2021/03/04 00:05:10;;;;;;;61.53;33.25;;;;;;;;;;5044113;28;20672;-74
2021/03/04 00:07:37;;;;;;;58.85;32.75;;;;;;;;;;5038915;28;20178;-74
2021/03/04 00:10:05;;;;;;;58.92;33.70;;;;;;;;;;5053512;28;20665;-74
2021/03/04 00:12:31;;;;;;;66.32;36.08;;;;;;;;;;5058402;28;20196;-74
2021/03/04 00:14:57;;;;;;;66.15;35.15;;;;;;;;;;5058054;28;20187;-74
2021/03/04 00:17:23;;;;;;;75.57;39.90;;;;;;;;;;5049025;28;20177;-76
2021/03/04 00:19:49;;;;;;;76.18;39.55;;;;;;;;;;5067504;28;20187;-76
2021/03/04 00:22:15;;;;;;;67.18;39.60;;;;;;;;;;5056760;28;20172;-75
2021/03/04 00:24:41;;;;;;;73.93;39.28;;;;;;;;;;5050050;28;20212;-76
2021/03/04 00:27:07;;;;;;;78.03;41.63;;;;;;;;;;5058045;28;20236;-76
2021/03/04 00:29:34;;;;;;;73.53;39.80;;;;;;;;;;5042313;28;20215;-76
2021/03/04 00:32:00;;;;;;;71.90;40.65;;;;;;;;;;5048889;28;20192;-76
2021/03/04 00:34:26;;;;;;;75.47;41.92;;;;;;;;;;5044198;28;20605;-76
2021/03/04 00:36:52;;;;;;;85.68;43.40;;;;;;;;;;5050682;28;20184;-73
2021/03/04 00:39:18;;;;;;;77.65;40.85;;;;;;;;;;5063153;28;20177;-75
2021/03/04 00:41:44;;;;;;;87.60;42.95;;;;;;;;;;5049359;28;20176;-76
2021/03/04 00:44:10;;;;;;;76.13;41.70;;;;;;;;;;5048133;28;20208;-76
2021/03/04 00:46:36;;;;;;;84.55;40.70;;;;;;;;;;5051275;28;20208;-75
2021/03/04 00:49:02;;;;;;;68.35;41.20;;;;;;;;;;5051361;28;20177;-75
2021/03/04 00:51:29;;;;;;;69.18;40.08;;;;;;;;;;5057490;28;20170;-75
2021/03/04 00:53:55;;;;;;;71.93;41.40;;;;;;;;;;5054160;28;20201;-75
2021/03/04 00:56:21;;;;;;;74.15;41.85;;;;;;;;;;5052835;28;20274;-74
2021/03/04 00:58:47;;;;;;;73.05;42.05;;;;;;;;;;5052658;28;20653;-76
2021/03/04 01:01:14;;;;;;;71.07;40.90;;;;;;;;;;5052804;28;20173;-75
2021/03/04 01:03:40;;;;;;;70.70;39.45;;;;;;;;;;5052382;28;20189;-75
2021/03/04 01:06:06;;;;;;;82.57;40.00;;;;;;;;;;5052858;28;20534;-75
2021/03/04 01:08:32;;;;;;;69.80;38.90;;;;;;;;;;5052941;28;20223;-76
2021/03/04 01:10:58;;;;;;;76.30;40.35;;;;;;;;;;5052798;28;20573;-74
2021/03/04 01:13:25;;;;;;;65.22;36.58;;;;;;;;;;5051721;28;20204;-74
2021/03/04 01:15:51;;;;;;;65.28;34.60;;;;;;;;;;5052740;28;20184;-75
2021/03/04 01:18:17;;;;;;;53.33;32.28;;;;;;;;;;5052374;28;20177;-75
2021/03/04 01:20:43;;;;;;;53.47;31.08;;;;;;;;;;5053606;28;20526;-74
2021/03/04 01:23:09;;;;;;;55.05;30.40;;;;;;;;;;5060305;28;20275;-74
2021/03/04 01:25:35;;;;;;;49.80;28.73;;;;;;;;;;5067804;28;20207;-76
2021/03/04 01:28:02;;;;;;;50.45;28.83;;;;;;;;;;5066315;28;20173;-76
2021/03/04 01:30:29;;;;;;;44.25;26.00;;;;;;;;;;5056654;28;20177;-75
2021/03/04 01:32:55;;;;;;;45.40;26.38;;;;;;;;;;5056086;28;20193;-75
2021/03/04 01:35:21;;;;;;;43.83;25.63;;;;;;;;;;5056705;28;20207;-76
2021/03/04 01:37:47;;;;;;;40.58;22.98;;;;;;;;;;5055359;28;20177;-75
2021/03/04 01:40:15;;;;;;;39.28;21.08;;;;;;;;;;5056011;28;20484;-74
2021/03/04 01:42:41;;;;;;;46.42;23.75;;;;;;;;;;5057174;28;20215;-76
2021/03/04 01:45:07;;;;;;;36.50;21.08;;;;;;;;;;5050487;28;20209;-75
2021/03/04 01:47:34;;;;;;;30.35;18.65;;;;;;;;;;5074032;28;20188;-74
2021/03/04 01:50:01;;;;;;;34.00;18.40;;;;;;;;;;5074884;28;20212;-76
2021/03/04 01:52:27;;;;;;;34.05;18.92;;;;;;;;;;5058764;28;20194;-75
2021/03/04 01:54:53;;;;;;;31.45;18.80;;;;;;;;;;5045439;28;20186;-76
2021/03/04 01:57:20;;;;;;;32.40;19.55;;;;;;;;;;5068083;28;20610;-77
2021/03/04 01:59:46;;;;;;;33.92;18.45;;;;;;;;;;5053263;28;20181;-76
2021/03/04 02:02:12;;;;;;;27.95;16.10;;;;;;;;;;5058140;28;20189;-76
2021/03/04 02:04:39;;;;;;;24.70;14.80;;;;;;;;;;5056169;28;20209;-76
2021/03/04 02:07:11;;;;;;;21.70;14.15;;;;;;;;;;5051612;28;20206;-75
2021/03/04 02:09:38;;;;;;;23.75;14.00;;;;;;;;;;5057172;28;20230;-75
2021/03/04 02:12:10;;;;;;;24.30;14.20;;;;;;;;;;5052020;28;20257;-75
2021/03/04 02:14:47;;;;;;;24.25;14.55;;;;;;;;;;5050398;28;20166;-74
2021/03/04 02:17:14;;;;;;;23.88;14.00;;;;;;;;;;5062749;28;20305;-75
2021/03/04 02:19:49;;;;;;;20.45;12.20;;;;;;;;;;5075727;28;20176;-75
2021/03/04 02:22:33;;;;;;;44.45;27.05;;;;;;;;;;5063794;28;20267;-75
2021/03/04 02:25:14;;;;;;;17.65;11.75;;;;;;;;;;5054940;28;20181;-75
2021/03/04 02:27:40;;;;;;;19.77;11.68;;;;;;;;;;5045270;28;20181;-75
2021/03/04 02:30:12;;;;;;;19.27;11.93;;;;;;;;;;5047784;28;20538;-76
2021/03/04 02:32:42;;;;;;;18.02;11.98;;;;;;;;;;5053890;28;20209;-74
2021/03/04 02:35:16;;;;;;;19.98;10.98;;;;;;;;;;5055333;28;20238;-76
2021/03/04 02:37:44;;;;;;;16.27;10.23;;;;;;;;;;5054519;28;20184;-77
2021/03/04 02:40:11;;;;;;;21.42;11.32;;;;;;;;;;5054623;28;20507;-75
2021/03/04 02:42:39;;;;;;;15.30;9.55;;;;;;;;;;5054447;28;20201;-76
2021/03/04 02:45:06;;;;;;;14.25;9.40;;;;;;;;;;5054596;28;20538;-76
2021/03/04 02:47:33;;;;;;;16.88;9.48;;;;;;;;;;5054443;28;20181;-76
2021/03/04 02:49:59;;;;;;;14.90;9.48;;;;;;;;;;5055519;28;20601;-76
2021/03/04 02:52:26;;;;;;;17.00;9.65;;;;;;;;;;5050053;28;20197;-76
2021/03/04 02:54:52;;;;;;;14.93;9.10;;;;;;;;;;5051846;28;20173;-75
2021/03/04 02:57:19;;;;;;;15.07;9.13;;;;;;;;;;5053741;28;20185;-75
2021/03/04 02:59:46;;;;;;;14.77;9.00;;;;;;;;;;5041929;28;20531;-75
2021/03/04 03:02:13;;;;;;;13.45;9.48;;;;;;;;;;5057606;28;20237;-75
2021/03/04 03:04:40;;;;;;;11.50;8.70;;;;;;;;;;5054308;28;20187;-74
2021/03/04 03:07:08;;;;;;;13.85;10.02;;;;;;;;;;5054004;28;20204;-75
2021/03/04 03:09:34;;;;;;;16.48;9.10;;;;;;;;;;5050943;28;20293;-75
2021/03/04 03:12:00;;;;;;;13.38;8.35;;;;;;;;;;5053911;28;20211;-77
2021/03/04 03:14:26;;;;;;;13.65;9.05;;;;;;;;;;5053683;28;20193;-75
2021/03/04 03:16:52;;;;;;;17.02;9.57;;;;;;;;;;5063955;28;20666;-76
2021/03/04 03:19:18;;;;;;;12.18;8.20;;;;;;;;;;5060023;28;20191;-76
2021/03/04 03:21:44;;;;;;;13.27;8.93;;;;;;;;;;5056250;28;20181;-76
2021/03/04 03:24:10;;;;;;;16.63;8.73;;;;;;;;;;5053977;28;20197;-75
2021/03/04 03:26:36;;;;;;;14.10;9.20;;;;;;;;;;5056400;28;20283;-76
2021/03/04 03:29:03;;;;;;;12.45;9.20;;;;;;;;;;5053195;28;20907;-76
2021/03/04 03:31:30;;;;;;;15.60;9.32;;;;;;;;;;5056435;28;20165;-75
2021/03/04 03:33:57;;;;;;;13.18;7.88;;;;;;;;;;5053565;28;20220;-74
2021/03/04 03:36:23;;;;;;;15.75;10.18;;;;;;;;;;5053856;28;20173;-75
2021/03/04 03:38:49;;;;;;;14.35;9.07;;;;;;;;;;5053248;28;20638;-75
2021/03/04 03:41:17;;;;;;;13.45;8.90;;;;;;;;;;5054253;28;20177;-75
2021/03/04 03:43:44;;;;;;;16.05;9.55;;;;;;;;;;5046603;28;20201;-74
2021/03/04 03:46:11;;;;;;;14.45;9.02;;;;;;;;;;5049357;28;20284;-76
2021/03/04 03:48:38;;;;;;;15.15;9.35;;;;;;;;;;5054547;28;20208;-74
2021/03/04 03:51:04;;;;;;;12.15;8.43;;;;;;;;;;5053979;28;20531;-75
2021/03/04 03:53:32;;;;;;;12.73;8.65;;;;;;;;;;5051692;28;20207;-75
2021/03/04 03:55:58;;;;;;;13.20;8.73;;;;;;;;;;5053417;28;20181;-74
2021/03/04 03:58:25;;;;;;;15.75;9.57;;;;;;;;;;5049202;28;20185;-76
2021/03/04 04:00:55;;;;;;;10.23;5.97;;;;;;;;;;5045567;28;20256;-75
2021/03/04 04:03:21;;;;;;;13.32;8.43;;;;;;;;;;5062286;28;20248;-74
2021/03/04 04:05:47;;;;;;;12.43;8.10;;;;;;;;;;5054973;28;20254;-75
2021/03/04 04:08:14;;;;;;;14.98;8.82;;;;;;;;;;5053954;28;20619;-75
2021/03/04 04:10:40;;;;;;;11.40;7.85;;;;;;;;;;5072270;28;20206;-74
2021/03/04 04:13:06;;;;;;;11.65;7.70;;;;;;;;;;5063769;28;20263;-75
2021/03/04 04:15:32;;;;;;;10.88;7.97;;;;;;;;;;5058209;28;20259;-75
2021/03/04 04:18:00;;;;;;;11.75;7.68;;;;;;;;;;5044973;28;20173;-76
2021/03/04 04:20:26;;;;;;;9.27;7.28;;;;;;;;;;5073645;28;20176;-74
2021/03/04 04:22:53;;;;;;;13.43;7.25;;;;;;;;;;5064260;28;20207;-76
2021/03/04 04:25:21;;;;;;;13.73;7.40;;;;;;;;;;5067100;28;20201;-76
2021/03/04 04:27:48;;;;;;;13.35;7.10;;;;;;;;;;5067095;28;20555;-76
2021/03/04 04:30:14;;;;;;;11.73;6.75;;;;;;;;;;5049682;28;20170;-76
2021/03/04 04:32:40;;;;;;;10.88;6.78;;;;;;;;;;5062718;28;20613;-75
2021/03/04 04:35:06;;;;;;;8.98;6.78;;;;;;;;;;5056246;28;20191;-76
2021/03/04 04:37:32;;;;;;;13.38;7.88;;;;;;;;;;5053258;28;20200;-76
2021/03/04 04:39:58;;;;;;;10.95;6.60;;;;;;;;;;5067770;28;20181;-76
2021/03/04 04:42:24;;;;;;;8.95;6.68;;;;;;;;;;5062716;28;20233;-75
2021/03/04 04:44:51;;;;;;;10.52;7.15;;;;;;;;;;5060886;28;20168;-75
2021/03/04 04:47:17;;;;;;;10.35;6.55;;;;;;;;;;5050954;28;20212;-76
2021/03/04 04:49:43;;;;;;;7.95;6.40;;;;;;;;;;5033607;28;20177;-76
2021/03/04 04:52:09;;;;;;;7.97;6.68;;;;;;;;;;5055145;28;20249;-76
2021/03/04 04:54:35;;;;;;;11.10;6.55;;;;;;;;;;5045693;28;20208;-76
2021/03/04 04:57:01;;;;;;;10.80;6.75;;;;;;;;;;5061096;28;20184;-75
2021/03/04 04:59:27;;;;;;;8.02;6.43;;;;;;;;;;5051554;28;20921;-75
2021/03/04 05:01:53;;;;;;;8.20;6.50;;;;;;;;;;5049275;28;20176;-75
2021/03/04 05:04:19;;;;;;;9.25;6.63;;;;;;;;;;5069032;28;20228;-75
2021/03/04 05:06:45;;;;;;;7.15;6.03;;;;;;;;;;5060947;28;20287;-75
2021/03/04 05:09:11;;;;;;;9.77;6.72;;;;;;;;;;5056449;28;20173;-75
2021/03/04 05:11:37;;;;;;;7.35;6.55;;;;;;;;;;5056351;28;20546;-75
2021/03/04 05:14:03;;;;;;;8.68;6.90;;;;;;;;;;5052380;28;20203;-75
2021/03/04 05:16:29;;;;;;;9.50;6.32;;;;;;;;;;5056647;28;20186;-76
2021/03/04 05:18:55;;;;;;;7.05;6.28;;;;;;;;;;5056669;28;20181;-76
2021/03/04 05:21:21;;;;;;;8.90;6.35;;;;;;;;;;5056367;28;20226;-75
2021/03/04 05:23:47;;;;;;;6.53;5.45;;;;;;;;;;5049316;28;20200;-76
2021/03/04 05:26:13;;;;;;;7.07;6.32;;;;;;;;;;5056446;28;20212;-76
2021/03/04 05:28:39;;;;;;;8.55;5.95;;;;;;;;;;5052610;28;20184;-75
2021/03/04 05:31:05;;;;;;;6.82;5.97;;;;;;;;;;5056379;28;20634;-77
2021/03/04 05:33:31;;;;;;;7.43;6.20;;;;;;;;;;5055576;28;20192;-76
2021/03/04 05:35:57;;;;;;;8.18;6.68;;;;;;;;;;5069549;28;20183;-76
2021/03/04 05:38:23;;;;;;;6.72;6.03;;;;;;;;;;5076620;28;20504;-75
2021/03/04 05:40:49;;;;;;;9.00;5.75;;;;;;;;;;5060096;28;20637;-74
2021/03/04 05:43:15;;;;;;;10.20;6.35;;;;;;;;;;5045837;28;20201;-76
2021/03/04 05:45:41;;;;;;;8.10;6.40;;;;;;;;;;5055800;28;20560;-76
2021/03/04 05:48:10;;;;;;;8.48;6.15;;;;;;;;;;5056384;28;20181;-75
2021/03/04 05:50:44;;;;;;;7.07;5.60;;;;;;;;;;5055592;28;20504;-75
2021/03/04 05:53:13;;;;;;;5.85;5.07;;;;;;;;;;5063060;28;20534;-76
2021/03/04 05:55:39;;;;;;;9.07;6.05;;;;;;;;;;5066595;28;20214;-75
2021/03/04 05:58:05;;;;;;;7.15;5.75;;;;;;;;;;5060748;28;20184;-75
2021/03/04 06:00:32;;;;;;;8.10;5.82;;;;;;;;;;5069640;28;20737;-76
2021/03/04 06:02:58;;;;;;;6.43;5.50;;;;;;;;;;5058940;28;20204;-76
2021/03/04 06:05:25;;;;;;;7.53;6.72;;;;;;;;;;5067801;28;20201;-76
2021/03/04 06:07:51;;;;;;;9.57;5.95;;;;;;;;;;5059225;28;20587;-75
2021/03/04 06:10:17;;;;;;;12.05;7.18;;;;;;;;;;5071665;28;20173;-75
2021/03/04 06:12:43;;;;;;;8.63;7.20;;;;;;;;;;5051122;28;20193;-75
2021/03/04 06:15:11;;;;;;;8.82;7.07;;;;;;;;;;5047549;28;20177;-76
2021/03/04 06:17:37;;;;;;;10.85;7.22;;;;;;;;;;5055847;28;20525;-75
2021/03/04 06:20:07;;;;;;;7.20;6.50;;;;;;;;;;5050547;28;20186;-75
2021/03/04 06:22:34;;;;;;;10.50;7.82;;;;;;;;;;5045690;28;20186;-75
2021/03/04 06:25:02;;;;;;;11.98;8.38;;;;;;;;;;5054851;28;20197;-76
2021/03/04 06:27:32;;;;;;;9.98;6.97;;;;;;;;;;5066792;28;20251;-75
2021/03/04 06:29:59;;;;;;;7.88;6.22;;;;;;;;;;5049305;28;20219;-74
2021/03/04 06:32:25;;;;;;;11.05;6.60;;;;;;;;;;5049110;28;20181;-76
2021/03/04 06:35:08;;;;;;;6.32;5.72;;;;;;;;;;5058131;28;20173;-75
2021/03/04 06:37:35;;;;;;;8.52;6.13;;;;;;;;;;5064381;28;20239;-77
2021/03/04 06:40:01;;;;;;;8.93;6.15;;;;;;;;;;5073726;28;20233;-74
2021/03/04 06:42:38;;;;;;;8.20;6.10;;;;;;;;;;5062559;28;20203;-74
2021/03/04 06:45:05;;;;;;;8.35;6.60;;;;;;;;;;5053893;28;20172;-74
2021/03/04 06:47:31;;;;;;;8.98;5.85;;;;;;;;;;5055092;28;20200;-76
2021/03/04 06:49:57;;;;;;;7.22;5.60;;;;;;;;;;5054835;28;20173;-76
2021/03/04 06:52:24;;;;;;;5.82;4.90;;;;;;;;;;5055296;28;20179;-74
2021/03/04 06:54:50;;;;;;;8.43;6.35;;;;;;;;;;5074725;28;20347;-76
2021/03/04 06:57:17;;;;;;;10.18;5.72;;;;;;;;;;5063920;28;20264;-76
2021/03/04 06:59:44;;;;;;;5.90;4.70;;;;;;;;;;5054592;28;20172;-77
2021/03/04 07:02:10;;;;;;;6.13;5.22;;;;;;;;;;5050019;28;20268;-77
2021/03/04 07:04:36;;;;;;;8.52;7.28;;;;;;;;;;5074216;28;20168;-76
2021/03/04 07:07:04;;;;;;;8.43;5.13;;;;;;;;;;5074186;28;20216;-76
2021/03/04 07:09:32;;;;;;;7.93;5.18;;;;;;;;;;5059591;28;20639;-75
2021/03/04 07:11:58;;;;;;;8.63;5.68;;;;;;;;;;5054054;28;20197;-77
2021/03/04 07:14:24;;;;;;;6.75;5.05;;;;;;;;;;5048821;28;20289;-77
2021/03/04 07:16:50;;;;;;;9.02;5.00;;;;;;;;;;5054781;28;20259;-76
2021/03/04 07:19:17;;;;;;;8.40;4.95;;;;;;;;;;5053792;28;20235;-77
2021/03/04 07:21:43;;;;;;;8.18;5.25;;;;;;;;;;5048025;28;20202;-77
2021/03/04 07:24:09;;;;;;;7.60;5.47;;;;;;;;;;5063606;28;20192;-75
2021/03/04 07:26:39;;;;;;;9.60;4.72;;;;;;;;;;5073981;28;20443;-77
2021/03/04 07:29:06;;;;;;;7.93;5.80;;;;;;;;;;5044403;28;20639;-77
2021/03/04 07:31:32;;;;;;;6.45;5.07;;;;;;;;;;5058725;28;20181;-77
2021/03/04 07:33:58;;;;;;;7.90;4.95;;;;;;;;;;5040499;28;20660;-74
2021/03/04 07:36:25;;;;;;;6.07;5.05;;;;;;;;;;5057109;28;20180;-76
2021/03/04 07:39:05;;;;;;;5.88;5.10;;;;;;;;;;5053980;28;20192;-75
2021/03/04 07:41:45;;;;;;;9.73;5.20;;;;;;;;;;5054201;28;20191;-76
2021/03/04 07:44:23;;;;;;;6.72;4.95;;;;;;;;;;5047755;28;21140;-77
2021/03/04 07:46:53;;;;;;;8.13;5.35;;;;;;;;;;5048116;28;20200;-76
2021/03/04 07:49:33;;;;;;;5.70;4.90;;;;;;;;;;5046627;28;20271;-76
2021/03/04 07:52:07;;;;;;;7.95;5.50;;;;;;;;;;5048048;28;20593;-76
2021/03/04 07:54:33;;;;;;;7.63;5.25;;;;;;;;;;5048155;28;20715;-76
2021/03/04 07:57:03;;;;;;;7.53;5.10;;;;;;;;;;5047923;28;20558;-75
2021/03/04 07:59:29;;;;;;;9.77;5.25;;;;;;;;;;5045882;28;20204;-76
2021/03/04 08:01:57;;;;;;;6.57;4.53;;;;;;;;;;5049369;28;20192;-75
2021/03/04 08:04:24;;;;;;;7.25;5.00;;;;;;;;;;5056159;28;20203;-75
2021/03/04 08:06:50;;;;;;;10.00;5.10;;;;;;;;;;5049230;28;20204;-75
2021/03/04 08:09:26;;;;;;;8.15;5.25;;;;;;;;;;5048639;28;20172;-76
2021/03/04 08:12:03;;;;;;;5.65;4.22;;;;;;;;;;5048944;28;20173;-76
2021/03/04 08:14:29;;;;;;;8.10;5.22;;;;;;;;;;5051670;28;20623;-76
2021/03/04 08:16:55;;;;;;;11.80;4.90;;;;;;;;;;5071674;28;20192;-76
2021/03/04 08:19:26;;;;;;;6.38;4.00;;;;;;;;;;5070654;28;20199;-76
2021/03/04 08:21:54;;;;;;;7.55;4.95;;;;;;;;;;5043088;28;20209;-76
2021/03/04 08:24:20;;;;;;;5.43;4.75;;;;;;;;;;5042935;28;20200;-76
2021/03/04 08:26:49;;;;;;;6.03;4.40;;;;;;;;;;5038534;28;20747;-75
2021/03/04 08:29:15;;;;;;;5.90;4.60;;;;;;;;;;5053473;28;20179;-76
2021/03/04 08:31:45;;;;;;;4.75;4.10;;;;;;;;;;5051553;28;20238;-75
2021/03/04 08:34:11;;;;;;;6.90;5.20;;;;;;;;;;5063073;28;20556;-75
2021/03/04 08:36:44;;;;;;;4.78;4.15;;;;;;;;;;5054456;28;20181;-75
2021/03/04 08:39:11;;;;;;;7.43;4.50;;;;;;;;;;5049148;28;20185;-75
2021/03/04 08:41:37;;;;;;;8.80;4.60;;;;;;;;;;5038124;28;20184;-77
2021/03/04 08:44:11;;;;;;;7.38;4.78;;;;;;;;;;5046121;28;20208;-75
2021/03/04 08:46:38;;;;;;;7.82;4.60;;;;;;;;;;5039800;28;20208;-75
2021/03/04 08:49:04;;;;;;;7.80;4.32;;;;;;;;;;5060201;28;20199;-76
2021/03/04 08:51:30;;;;;;;5.50;4.38;;;;;;;;;;5041011;28;20181;-75
2021/03/04 08:53:56;;;;;;;6.63;4.43;;;;;;;;;;5064691;28;20202;-76
2021/03/04 08:56:22;;;;;;;7.38;5.10;;;;;;;;;;5056209;28;20181;-76
2021/03/04 08:58:48;;;;;;;11.38;4.72;;;;;;;;;;5049250;28;20508;-76
2021/03/04 09:01:14;;;;;;;10.68;4.35;;;;;;;;;;5047618;28;20668;-77
2021/03/04 09:03:42;;;;;;;5.38;4.45;;;;;;;;;;5047566;28;20209;-75
2021/03/04 09:06:08;;;;;;;6.45;5.13;;;;;;;;;;5059342;28;20710;-75
2021/03/04 09:08:38;;;;;;;6.20;4.25;;;;;;;;;;5048468;28;20188;-75
2021/03/04 09:11:08;;;;;;;5.95;4.20;;;;;;;;;;5047639;28;20589;-75
2021/03/04 09:13:34;;;;;;;8.07;4.35;;;;;;;;;;5048445;28;20211;-76
2021/03/04 09:16:07;;;;;;;6.25;4.03;;;;;;;;;;5036482;28;20891;-75
2021/03/04 09:18:41;;;;;;;7.93;4.65;;;;;;;;;;5035984;28;20185;-76
2021/03/04 09:21:09;;;;;;;7.25;4.80;;;;;;;;;;5039533;28;20949;-75
2021/03/04 09:23:35;;;;;;;7.97;4.70;;;;;;;;;;5068445;28;20204;-76
2021/03/04 09:26:02;;;;;;;6.45;4.50;;;;;;;;;;5053334;28;20205;-76
2021/03/04 09:28:28;;;;;;;7.97;4.22;;;;;;;;;;5040832;28;20184;-76
2021/03/04 09:30:54;;;;;;;5.60;4.40;;;;;;;;;;5046571;28;20201;-75
2021/03/04 09:33:21;;;;;;;5.35;4.68;;;;;;;;;;5046491;28;20306;-75
2021/03/04 09:35:58;;;;;;;8.98;5.40;;;;;;;;;;5045347;28;20383;-76
2021/03/04 09:38:25;;;;;;;8.95;4.60;;;;;;;;;;5043209;28;20213;-77
2021/03/04 09:40:51;;;;;;;7.60;4.32;;;;;;;;;;5044195;28;20724;-77
2021/03/04 09:43:19;;;;;;;5.97;4.57;;;;;;;;;;5052056;28;20205;-77
2021/03/04 09:45:46;;;;;;;6.70;4.40;;;;;;;;;;5049425;28;20254;-77
2021/03/04 09:48:12;;;;;;;9.27;5.32;;;;;;;;;;5047535;28;20180;-76
2021/03/04 09:50:38;;;;;;;8.88;5.80;;;;;;;;;;5047927;28;20207;-75
2021/03/04 09:53:06;;;;;;;7.22;4.38;;;;;;;;;;5058230;28;20201;-76
2021/03/04 09:55:38;;;;;;;8.70;4.53;;;;;;;;;;5050115;28;20267;-76
2021/03/04 09:58:19;;;;;;;10.35;5.30;;;;;;;;;;5050887;28;20564;-76
2021/03/04 10:00:46;;;;;;;6.25;4.40;;;;;;;;;;5048467;28;20184;-75
2021/03/04 10:03:13;;;;;;;9.45;4.88;;;;;;;;;;5049302;28;20548;-76
2021/03/04 10:05:49;;;;;;;7.32;4.75;;;;;;;;;;5071857;28;20607;-76
2021/03/04 10:08:15;;;;;;;14.23;5.95;;;;;;;;;;5048740;28;20646;-76
2021/03/04 10:10:42;;;;;;;8.57;4.95;;;;;;;;;;5072020;28;20918;-76
2021/03/04 10:13:08;;;;;;;7.85;5.15;;;;;;;;;;5056889;28;20203;-75
2021/03/04 10:15:35;;;;;;;12.07;4.70;;;;;;;;;;5055349;28;20634;-75
2021/03/04 10:18:03;;;;;;;8.77;5.00;;;;;;;;;;5037857;28;20553;-75
2021/03/04 10:20:30;;;;;;;8.80;5.35;;;;;;;;;;5053741;28;20656;-75
2021/03/04 10:22:57;;;;;;;13.35;5.10;;;;;;;;;;5073192;28;20204;-76
2021/03/04 10:25:23;;;;;;;7.28;4.88;;;;;;;;;;5057022;28;20185;-76
2021/03/04 10:27:49;;;;;;;8.32;4.80;;;;;;;;;;5049826;28;20847;-75
2021/03/04 10:30:16;;;;;;;5.95;4.40;;;;;;;;;;5051499;28;20181;-74
2021/03/04 10:32:43;;;;;;;5.82;4.15;;;;;;;;;;5040172;28;20716;-76
2021/03/04 10:35:09;;;;;;;8.82;4.50;;;;;;;;;;5055470;28;20673;-76
2021/03/04 10:37:36;;;;;;;7.88;4.88;;;;;;;;;;5052064;28;20239;-76
2021/03/04 10:40:03;;;;;;;6.03;4.40;;;;;;;;;;5050532;28;20658;-76
2021/03/04 10:42:29;;;;;;;8.35;3.55;;;;;;;;;;5051438;28;20193;-75
2021/03/04 10:44:59;;;;;;;9.23;4.30;;;;;;;;;;5048019;28;20251;-76
2021/03/04 10:47:24;;;;;;;7.55;4.22;;;;;;;;;;5048526;28;20192;-76
2021/03/04 10:49:50;;;;;;;10.80;5.00;;;;;;;;;;5049828;28;20185;-76
2021/03/04 10:52:16;;;;;;;12.63;5.05;;;;;;;;;;5050552;28;20177;-77
2021/03/04 10:54:43;;;;;;;8.63;4.70;;;;;;;;;;5049484;28;20177;-74
2021/03/04 10:57:08;;;;;;;7.38;4.93;;;;;;;;;;5050292;28;20614;-77
2021/03/04 10:59:35;;;;;;;5.50;4.32;;;;;;;;;;5050810;28;20189;-75
2021/03/04 11:02:01;;;;;;;12.68;4.63;;;;;;;;;;5050321;28;20181;-75
2021/03/04 11:04:27;;;;;;;6.10;3.97;;;;;;;;;;5050385;28;20205;-77
2021/03/04 11:06:53;;;;;;;6.75;4.00;;;;;;;;;;5048827;28;20300;-77
2021/03/04 11:09:19;;;;;;;5.70;3.85;;;;;;;;;;5050896;28;20185;-76
2021/03/04 11:11:45;;;;;;;6.90;3.88;;;;;;;;;;5049818;28;20888;-76
2021/03/04 11:14:11;;;;;;;7.22;3.70;;;;;;;;;;5046731;28;20219;-76
2021/03/04 11:16:37;;;;;;;7.90;4.22;;;;;;;;;;5048775;28;20256;-77
2021/03/04 11:19:04;;;;;;;9.73;5.15;;;;;;;;;;5052486;28;20298;-76
2021/03/04 11:21:30;;;;;;;7.97;4.32;;;;;;;;;;5053106;28;20216;-77
2021/03/04 11:23:56;;;;;;;9.85;3.60;;;;;;;;;;5044624;28;20201;-75
2021/03/04 11:26:23;;;;;;;8.98;3.95;;;;;;;;;;5041993;28;20209;-76
2021/03/04 11:28:49;;;;;;;8.55;4.07;;;;;;;;;;5049784;28;20646;-75
2021/03/04 11:31:15;;;;;;;8.85;3.92;;;;;;;;;;5055115;28;20180;-76
2021/03/04 11:33:41;;;;;;;6.88;4.03;;;;;;;;;;5061409;28;20218;-77
2021/03/04 11:36:07;;;;;;;6.53;3.20;;;;;;;;;;5054663;28;20177;-76
2021/03/04 11:38:33;;;;;;;6.90;4.30;;;;;;;;;;5048212;28;20180;-77
2021/03/04 11:40:59;;;;;;;6.38;4.07;;;;;;;;;;5051783;28;20198;-77
2021/03/04 11:43:25;;;;;;;6.85;4.05;;;;;;;;;;5049242;28;20227;-77
2021/03/04 11:45:51;;;;;;;7.57;3.97;;;;;;;;;;5049834;28;20231;-76
2021/03/04 11:48:17;;;;;;;7.32;3.95;;;;;;;;;;5042309;28;20181;-76
2021/03/04 11:50:43;;;;;;;9.55;4.10;;;;;;;;;;5050086;28;20651;-75
2021/03/04 11:53:09;;;;;;;7.82;4.72;;;;;;;;;;5069491;28;20223;-75
2021/03/04 11:55:35;;;;;;;6.85;3.92;;;;;;;;;;5060916;28;20656;-75
2021/03/04 11:58:02;;;;;;;8.75;4.50;;;;;;;;;;5047042;28;20280;-77
2021/03/04 12:00:28;;;;;;;7.93;4.40;;;;;;;;;;5046371;28;20181;-77
2021/03/04 12:02:54;;;;;;;6.93;3.97;;;;;;;;;;5048584;28;20689;-75
2021/03/04 12:05:20;;;;;;;10.27;4.50;;;;;;;;;;5045098;28;20238;-75
2021/03/04 12:07:46;;;;;;;8.30;4.55;;;;;;;;;;5049750;28;20296;-77
2021/03/04 12:10:12;;;;;;;9.18;4.85;;;;;;;;;;5049516;28;20292;-77
2021/03/04 12:12:39;;;;;;;5.95;4.07;;;;;;;;;;5045562;28;20200;-77
2021/03/04 12:15:06;;;;;;;10.15;5.15;;;;;;;;;;5048812;28;20230;-77
2021/03/04 12:17:32;;;;;;;10.02;4.90;;;;;;;;;;5037069;28;20543;-77
2021/03/04 12:19:58;;;;;;;11.73;4.85;;;;;;;;;;5048953;28;20230;-77
2021/03/04 12:22:24;;;;;;;10.77;4.18;;;;;;;;;;5046332;28;20185;-77
2021/03/04 12:24:50;;;;;;;7.63;4.40;;;;;;;;;;5039671;28;20177;-76
2021/03/04 12:27:16;;;;;;;5.73;4.30;;;;;;;;;;5051023;28;20569;-76
2021/03/04 12:29:42;;;;;;;7.07;3.92;;;;;;;;;;5049877;28;20447;-77
2021/03/04 12:32:08;;;;;;;6.88;4.10;;;;;;;;;;5046155;28;20255;-78
2021/03/04 12:34:34;;;;;;;11.18;4.50;;;;;;;;;;5044215;28;20184;-75
2021/03/04 12:37:00;;;;;;;8.60;4.45;;;;;;;;;;5048587;28;20230;-76
2021/03/04 12:39:26;;;;;;;10.98;4.07;;;;;;;;;;5050815;28;20185;-78
2021/03/04 12:41:52;;;;;;;7.25;3.97;;;;;;;;;;5046693;28;20185;-76
2021/03/04 12:44:18;;;;;;;7.22;4.68;;;;;;;;;;5047937;28;20687;-76
2021/03/04 12:46:44;;;;;;;8.60;4.90;;;;;;;;;;5044319;28;20200;-77
2021/03/04 12:49:10;;;;;;;16.38;11.45;;;;;;;;;;5050104;28;20261;-75
2021/03/04 12:51:36;;;;;;;10.30;5.05;;;;;;;;;;5044551;28;20267;-77
2021/03/04 12:54:02;;;;;;;8.38;5.28;;;;;;;;;;5064648;28;20535;-77
2021/03/04 12:56:28;;;;;;;8.45;4.40;;;;;;;;;;5051605;28;20264;-76
2021/03/04 12:58:54;;;;;;;13.52;5.30;;;;;;;;;;5048853;28;20246;-76
2021/03/04 13:01:20;;;;;;;10.00;4.72;;;;;;;;;;5048255;28;20271;-77
2021/03/04 13:03:46;;;;;;;8.13;4.97;;;;;;;;;;5048606;28;20208;-77
2021/03/04 13:06:12;;;;;;;11.77;4.95;;;;;;;;;;5047521;28;20271;-77
2021/03/04 13:08:38;;;;;;;8.23;4.40;;;;;;;;;;5042199;28;20182;-75
2021/03/04 13:11:04;;;;;;;7.05;4.88;;;;;;;;;;5049023;28;20204;-77
2021/03/04 13:13:30;;;;;;;9.55;4.50;;;;;;;;;;5047891;28;20201;-76
2021/03/04 13:15:56;;;;;;;10.07;5.45;;;;;;;;;;5061307;28;20211;-77
2021/03/04 13:18:22;;;;;;;9.32;4.95;;;;;;;;;;5059864;28;20200;-76
2021/03/04 13:20:48;;;;;;;7.57;4.72;;;;;;;;;;5052644;28;20184;-76
2021/03/04 13:23:14;;;;;;;6.70;4.18;;;;;;;;;;5053104;28;20208;-76
2021/03/04 13:25:40;;;;;;;7.50;4.95;;;;;;;;;;5056009;28;20193;-76
2021/03/04 13:28:06;;;;;;;11.43;4.65;;;;;;;;;;5052077;28;20544;-77
2021/03/04 13:30:32;;;;;;;12.52;6.32;;;;;;;;;;5052431;28;20270;-76
2021/03/04 13:32:58;;;;;;;10.45;4.68;;;;;;;;;;5062729;28;20238;-76
2021/03/04 13:35:25;;;;;;;11.38;5.03;;;;;;;;;;5072805;28;20192;-76
2021/03/04 13:37:51;;;;;;;10.93;6.22;;;;;;;;;;5058776;28;20185;-76
2021/03/04 13:40:17;;;;;;;16.02;5.90;;;;;;;;;;5054497;28;20594;-76
2021/03/04 13:42:43;;;;;;;11.50;5.35;;;;;;;;;;5051806;28;20205;-76
2021/03/04 13:45:09;;;;;;;10.98;5.45;;;;;;;;;;5052098;28;20285;-76
2021/03/04 13:47:35;;;;;;;10.35;5.30;;;;;;;;;;5051387;28;20681;-76
2021/03/04 13:50:02;;;;;;;12.27;5.78;;;;;;;;;;5052379;28;20208;-76
2021/03/04 13:52:28;;;;;;;12.25;4.85;;;;;;;;;;5051053;28;20197;-76
2021/03/04 13:54:54;;;;;;;12.88;5.07;;;;;;;;;;5051936;28;20635;-76
2021/03/04 13:57:20;;;;;;;9.30;4.90;;;;;;;;;;5048576;28;20272;-76
2021/03/04 13:59:46;;;;;;;6.53;5.55;;;;;;;;;;5052260;28;20177;-76
2021/03/04 14:02:12;;;;;;;9.90;5.88;;;;;;;;;;5051247;28;20190;-77
2021/03/04 14:04:38;;;;;;;12.23;5.28;;;;;;;;;;5051878;28;20213;-77
2021/03/04 14:07:05;;;;;;;9.77;5.50;;;;;;;;;;5051791;28;20232;-77
2021/03/04 14:09:31;;;;;;;10.65;5.57;;;;;;;;;;5051556;28;20410;-76
2021/03/04 14:11:56;;;;;;;11.90;5.40;;;;;;;;;;5050028;28;20227;-76
2021/03/04 14:14:22;;;;;;;13.25;5.85;;;;;;;;;;5050407;28;20192;-76
2021/03/04 14:16:48;;;;;;;11.60;6.43;;;;;;;;;;5049342;28;20188;-76
2021/03/04 14:19:15;;;;;;;30.20;19.23;;;;;;;;;;5071934;28;20238;-76
2021/03/04 14:21:41;;;;;;;10.00;7.15;;;;;;;;;;5044848;28;20225;-77
2021/03/04 14:24:07;;;;;;;16.08;8.68;;;;;;;;;;5057862;28;20559;-76
2021/03/04 14:26:33;;;;;;;10.25;5.53;;;;;;;;;;5050362;28;20232;-77
2021/03/04 14:28:59;;;;;;;9.55;6.38;;;;;;;;;;5051742;28;20208;-76
2021/03/04 14:31:25;;;;;;;13.20;6.05;;;;;;;;;;5051660;28;20189;-77